Detall de PIREP

Printer-friendly versionPDF version

[2016/02/14 09:23:00]
Flight IATA:CT3402
Pilot Number:012
Company ICAO:CAT
Aircraft Type:B744/E
PAX:426
Departing Airport: LEBL
Destination Airport: ENGM
Alternate Airport:ENTO
Online: VATSIM
Route:OKABI/N0485F380 UN861 FISTO UY156 ADABI UN858 VANAD UN874 VEKIN UN873 ADUTO/N0485F370 UN873 HELEN/N0489F380 UN873 TOLEN/N0483F370 JUIST UN873 TUSKA INSUS AMSEV PIPEX M609 RIPAM
Flight Level:F380
No Slew and time accel
No pause
Crash detect
Detect pilot in Cockpit between each 30 and 45 minutes
09:23 Zero fuel Weight: 481349 Lbs, Fuel Weight: 88805 Lbs
09:23 VATSIM:LEBL 140900Z 26014KT 240V310 9999 FEW035 15/04 Q0996 NOSIG
09:23 VATSIM:ENGM 140850Z VRB02KT 9999 BKN020 M10/M13 Q1000 NOSIG
09:32 Take-off
09:32 Take off Weight: 568234 Lbs
09:32 Wind: 273º @ 014 Knots Heading: 245º
09:32 POS N41º 17´ 09´´ E002º 05´ 07´´
09:32 Gear Up: 183 Knots
09:32 Flaps:3 at 183 Knots
09:33 Flaps:2 at 209 Knots
09:33 Flaps:1 at 207 Knots
09:36 Flaps:0 at 239 Knots
09:47 Wind:263º@052 Knots Heading: 347º Ground Speed: 495 Knots Altitude 33671 ft
10:02 Wind:266º@045 Knots Heading: 346º Ground Speed: 492 Knots Altitude 37467 ft
10:17 Wind:255º@037 Knots Heading: 358º Ground Speed: 505 Knots Altitude 37421 ft
10:32 Wind:253º@037 Knots Heading: 015º Ground Speed: 516 Knots Altitude 37322 ft
10:47 Wind:249º@039 Knots Heading: 025º Ground Speed: 522 Knots Altitude 37283 ft
10:50 TOC
10:50 Fuel Weight: 54104 Lb
11:02 Wind:245º@037 Knots Heading: 022º Ground Speed: 522 Knots Altitude 38290 ft
11:17 Wind:242º@035 Knots Heading: 018º Ground Speed: 519 Knots Altitude 38339 ft
11:32 Wind:241º@030 Knots Heading: 006º Ground Speed: 507 Knots Altitude 38490 ft
11:47 Wind:240º@027 Knots Heading: 003º Ground Speed: 503 Knots Altitude 38612 ft
11:51 TOD
11:51 FuelWeight: 34782 Lb
12:02 Wind:346º@007 Knots Heading: 038º Ground Speed: 346 Knots Altitude 13356 ft
12:09 Flaps:1 at 222 Knots
12:13 Flaps:2 at 178 Knots
12:13 Flaps:3 at 178 Knots
12:14 Flaps:4 at 186 Knots
12:14 Gear Down: 185 Knots
12:14 Flaps:5 at 179 Knots
12:14 Flaps:6 at 143 Knots
12:17 Wind:039º@006 Knots Heading: 017º Ground Speed: 145 Knots Altitude 2066 ft
12:18 TouchDown:Rate -96 ft/min Speed: 140 Knots
12:19 VATSIM:ENGM 141150Z 04006KT 010V070 9999 FEW013 M07/M11 Q1001 NOSIG
12:19 Land
12:19 Wind:037º@006 Knots
12:19 Heading: 017º
12:19 Flight Duration: 02:47
12:19 Landing Weight: 510201 Lbs
12:19 POS N60º 11´ 40´´ E011º 04´ 45´´
12:23 Parking brakes on
12:23 Block to Block Duration: 02:51
12:23 Final Fuel: 28068 Lbls
12:23 Spent Fuel: 60736 Lbls
12:23 Flight Length: 1289 NM
12:23 TOD Land Length: 138 NM

Exportar CSV

Powered by Drupal - Modified by Danger4k